sensor_id;sensor_type;location;lat;lon;timestamp;P1;durP1;ratioP1;P2;durP2;ratioP2
8819;SDS011;4446;50.876;4.736;2022-11-15T00:02:18;22.02;;;16.60;;
8819;SDS011;4446;50.876;4.736;2022-11-15T00:04:45;22.30;;;16.15;;
8819;SDS011;4446;50.876;4.736;2022-11-15T00:07:13;22.33;;;16.90;;
8819;SDS011;4446;50.876;4.736;2022-11-15T00:09:40;23.73;;;17.63;;
8819;SDS011;4446;50.876;4.736;2022-11-15T00:12:08;20.67;;;16.35;;
8819;SDS011;4446;50.876;4.736;2022-11-15T00:14:35;25.83;;;17.35;;
8819;SDS011;4446;50.876;4.736;2022-11-15T00:17:02;21.33;;;16.30;;
8819;SDS011;4446;50.876;4.736;2022-11-15T00:19:29;21.38;;;16.27;;
8819;SDS011;4446;50.876;4.736;2022-11-15T00:21:56;21.35;;;16.75;;
8819;SDS011;4446;50.876;4.736;2022-11-15T00:24:23;19.65;;;15.60;;
8819;SDS011;4446;50.876;4.736;2022-11-15T00:26:50;21.17;;;15.98;;
8819;SDS011;4446;50.876;4.736;2022-11-15T00:29:18;24.00;;;17.42;;
8819;SDS011;4446;50.876;4.736;2022-11-15T00:31:45;24.50;;;17.83;;
8819;SDS011;4446;50.876;4.736;2022-11-15T00:34:12;22.15;;;16.80;;
8819;SDS011;4446;50.876;4.736;2022-11-15T00:36:39;22.95;;;17.80;;
8819;SDS011;4446;50.876;4.736;2022-11-15T00:39:06;20.98;;;16.02;;
8819;SDS011;4446;50.876;4.736;2022-11-15T00:41:33;20.45;;;16.85;;
8819;SDS011;4446;50.876;4.736;2022-11-15T00:44:00;24.00;;;16.70;;
8819;SDS011;4446;50.876;4.736;2022-11-15T00:46:29;22.45;;;17.40;;
8819;SDS011;4446;50.876;4.736;2022-11-15T00:48:56;23.38;;;17.60;;
8819;SDS011;4446;50.876;4.736;2022-11-15T00:51:23;21.77;;;16.90;;
8819;SDS011;4446;50.876;4.736;2022-11-15T00:53:50;22.35;;;16.50;;
8819;SDS011;4446;50.876;4.736;2022-11-15T00:56:17;23.38;;;17.20;;
8819;SDS011;4446;50.876;4.736;2022-11-15T00:58:44;23.80;;;17.67;;
8819;SDS011;4446;50.876;4.736;2022-11-15T01:01:11;23.08;;;17.90;;
8819;SDS011;4446;50.876;4.736;2022-11-15T01:03:41;22.33;;;16.10;;
8819;SDS011;4446;50.876;4.736;2022-11-15T01:06:08;20.20;;;15.85;;
8819;SDS011;4446;50.876;4.736;2022-11-15T01:08:37;19.25;;;15.30;;
8819;SDS011;4446;50.876;4.736;2022-11-15T01:11:05;21.55;;;16.83;;
8819;SDS011;4446;50.876;4.736;2022-11-15T01:13:34;24.20;;;16.35;;
8819;SDS011;4446;50.876;4.736;2022-11-15T01:16:05;25.05;;;18.92;;
8819;SDS011;4446;50.876;4.736;2022-11-15T01:18:33;26.40;;;18.42;;
8819;SDS011;4446;50.876;4.736;2022-11-15T01:21:05;23.88;;;17.33;;
8819;SDS011;4446;50.876;4.736;2022-11-15T01:23:33;22.55;;;17.45;;
8819;SDS011;4446;50.876;4.736;2022-11-15T01:26:01;24.42;;;18.05;;
8819;SDS011;4446;50.876;4.736;2022-11-15T01:28:29;25.52;;;19.25;;
8819;SDS011;4446;50.876;4.736;2022-11-15T01:30:58;24.27;;;18.40;;
8819;SDS011;4446;50.876;4.736;2022-11-15T01:33:25;27.45;;;18.85;;
8819;SDS011;4446;50.876;4.736;2022-11-15T01:35:53;24.48;;;18.25;;
8819;SDS011;4446;50.876;4.736;2022-11-15T01:38:21;26.17;;;19.77;;
8819;SDS011;4446;50.876;4.736;2022-11-15T01:40:49;25.63;;;19.35;;
8819;SDS011;4446;50.876;4.736;2022-11-15T01:43:20;27.08;;;18.85;;
8819;SDS011;4446;50.876;4.736;2022-11-15T01:45:49;28.10;;;19.65;;
8819;SDS011;4446;50.876;4.736;2022-11-15T01:48:18;30.67;;;19.30;;
8819;SDS011;4446;50.876;4.736;2022-11-15T01:50:46;28.05;;;20.35;;
8819;SDS011;4446;50.876;4.736;2022-11-15T01:53:13;26.27;;;20.25;;
8819;SDS011;4446;50.876;4.736;2022-11-15T01:55:42;26.08;;;19.55;;
8819;SDS011;4446;50.876;4.736;2022-11-15T01:58:10;27.95;;;20.35;;
8819;SDS011;4446;50.876;4.736;2022-11-15T02:00:37;26.20;;;20.67;;
8819;SDS011;4446;50.876;4.736;2022-11-15T02:03:04;28.58;;;19.65;;
8819;SDS011;4446;50.876;4.736;2022-11-15T02:05:31;26.40;;;20.02;;
8819;SDS011;4446;50.876;4.736;2022-11-15T02:07:59;24.67;;;19.38;;
8819;SDS011;4446;50.876;4.736;2022-11-15T02:10:27;26.75;;;18.88;;
8819;SDS011;4446;50.876;4.736;2022-11-15T02:12:56;25.65;;;18.42;;
8819;SDS011;4446;50.876;4.736;2022-11-15T02:15:27;24.75;;;19.38;;
8819;SDS011;4446;50.876;4.736;2022-11-15T02:18:04;23.27;;;18.75;;
8819;SDS011;4446;50.876;4.736;2022-11-15T02:20:46;25.38;;;18.55;;
8819;SDS011;4446;50.876;4.736;2022-11-15T02:23:31;26.30;;;18.63;;
8819;SDS011;4446;50.876;4.736;2022-11-15T02:26:24;23.92;;;17.42;;
8819;SDS011;4446;50.876;4.736;2022-11-15T02:29:07;23.60;;;17.90;;
8819;SDS011;4446;50.876;4.736;2022-11-15T02:31:39;28.30;;;18.45;;
8819;SDS011;4446;50.876;4.736;2022-11-15T02:34:15;24.35;;;18.13;;
8819;SDS011;4446;50.876;4.736;2022-11-15T02:36:49;25.00;;;18.10;;
8819;SDS011;4446;50.876;4.736;2022-11-15T02:39:31;22.95;;;17.60;;
8819;SDS011;4446;50.876;4.736;2022-11-15T02:42:02;23.80;;;17.67;;
8819;SDS011;4446;50.876;4.736;2022-11-15T02:44:54;22.70;;;17.52;;
8819;SDS011;4446;50.876;4.736;2022-11-15T02:47:24;25.42;;;18.27;;
8819;SDS011;4446;50.876;4.736;2022-11-15T02:49:54;22.52;;;17.02;;
8819;SDS011;4446;50.876;4.736;2022-11-15T02:52:25;20.58;;;16.05;;
8819;SDS011;4446;50.876;4.736;2022-11-15T02:54:53;22.02;;;16.58;;
8819;SDS011;4446;50.876;4.736;2022-11-15T02:57:22;19.92;;;15.32;;
8819;SDS011;4446;50.876;4.736;2022-11-15T03:00:06;20.88;;;16.70;;
8819;SDS011;4446;50.876;4.736;2022-11-15T03:05:34;19.20;;;15.10;;
8819;SDS011;4446;50.876;4.736;2022-11-15T03:08:05;21.27;;;15.45;;
8819;SDS011;4446;50.876;4.736;2022-11-15T03:10:42;18.88;;;15.43;;
8819;SDS011;4446;50.876;4.736;2022-11-15T03:13:16;22.15;;;16.80;;
8819;SDS011;4446;50.876;4.736;2022-11-15T03:15:51;22.15;;;16.17;;
8819;SDS011;4446;50.876;4.736;2022-11-15T03:18:27;21.45;;;17.08;;
8819;SDS011;4446;50.876;4.736;2022-11-15T03:20:58;22.70;;;17.20;;
8819;SDS011;4446;50.876;4.736;2022-11-15T03:23:27;25.17;;;17.85;;
8819;SDS011;4446;50.876;4.736;2022-11-15T03:25:56;24.52;;;17.50;;
8819;SDS011;4446;50.876;4.736;2022-11-15T03:28:27;22.40;;;16.88;;
8819;SDS011;4446;50.876;4.736;2022-11-15T03:30:59;21.52;;;16.75;;
8819;SDS011;4446;50.876;4.736;2022-11-15T03:33:50;24.58;;;18.02;;
8819;SDS011;4446;50.876;4.736;2022-11-15T03:36:19;21.48;;;17.05;;
8819;SDS011;4446;50.876;4.736;2022-11-15T03:38:49;22.65;;;17.58;;
8819;SDS011;4446;50.876;4.736;2022-11-15T03:41:21;22.40;;;18.10;;
8819;SDS011;4446;50.876;4.736;2022-11-15T03:43:52;24.60;;;19.15;;
8819;SDS011;4446;50.876;4.736;2022-11-15T03:46:27;24.88;;;17.67;;
8819;SDS011;4446;50.876;4.736;2022-11-15T03:49:02;26.10;;;17.92;;
8819;SDS011;4446;50.876;4.736;2022-11-15T03:51:33;26.38;;;19.20;;
8819;SDS011;4446;50.876;4.736;2022-11-15T03:54:02;26.65;;;18.73;;
8819;SDS011;4446;50.876;4.736;2022-11-15T03:56:30;25.42;;;17.35;;
8819;SDS011;4446;50.876;4.736;2022-11-15T03:58:57;23.10;;;16.73;;
8819;SDS011;4446;50.876;4.736;2022-11-15T04:01:24;20.45;;;15.88;;
8819;SDS011;4446;50.876;4.736;2022-11-15T04:03:51;19.02;;;15.00;;
8819;SDS011;4446;50.876;4.736;2022-11-15T04:06:20;22.70;;;17.25;;
8819;SDS011;4446;50.876;4.736;2022-11-15T04:08:47;21.85;;;15.93;;
8819;SDS011;4446;50.876;4.736;2022-11-15T04:11:14;23.17;;;15.45;;
8819;SDS011;4446;50.876;4.736;2022-11-15T04:13:41;20.58;;;14.82;;
8819;SDS011;4446;50.876;4.736;2022-11-15T04:16:08;21.60;;;15.57;;
8819;SDS011;4446;50.876;4.736;2022-11-15T04:18:34;17.90;;;13.45;;
8819;SDS011;4446;50.876;4.736;2022-11-15T04:21:01;21.67;;;14.27;;
8819;SDS011;4446;50.876;4.736;2022-11-15T04:23:47;19.65;;;14.50;;
8819;SDS011;4446;50.876;4.736;2022-11-15T04:26:40;20.88;;;14.18;;
8819;SDS011;4446;50.876;4.736;2022-11-15T04:29:07;17.80;;;13.23;;
8819;SDS011;4446;50.876;4.736;2022-11-15T04:31:52;18.33;;;14.02;;
8819;SDS011;4446;50.876;4.736;2022-11-15T04:34:19;17.27;;;13.15;;
8819;SDS011;4446;50.876;4.736;2022-11-15T04:36:46;18.67;;;14.45;;
8819;SDS011;4446;50.876;4.736;2022-11-15T04:39:31;19.65;;;14.05;;
8819;SDS011;4446;50.876;4.736;2022-11-15T04:41:58;20.08;;;13.60;;
8819;SDS011;4446;50.876;4.736;2022-11-15T04:44:25;21.70;;;14.60;;
8819;SDS011;4446;50.876;4.736;2022-11-15T04:46:52;18.67;;;13.90;;
8819;SDS011;4446;50.876;4.736;2022-11-15T04:49:19;18.38;;;13.40;;
8819;SDS011;4446;50.876;4.736;2022-11-15T04:51:46;17.00;;;12.07;;
8819;SDS011;4446;50.876;4.736;2022-11-15T04:54:13;18.63;;;12.43;;
8819;SDS011;4446;50.876;4.736;2022-11-15T04:56:42;14.93;;;11.65;;
8819;SDS011;4446;50.876;4.736;2022-11-15T04:59:09;16.38;;;12.07;;
8819;SDS011;4446;50.876;4.736;2022-11-15T05:01:36;14.07;;;11.15;;
8819;SDS011;4446;50.876;4.736;2022-11-15T05:04:03;16.02;;;11.50;;
8819;SDS011;4446;50.876;4.736;2022-11-15T05:06:45;14.82;;;10.93;;
8819;SDS011;4446;50.876;4.736;2022-11-15T05:09:16;14.40;;;10.43;;
8819;SDS011;4446;50.876;4.736;2022-11-15T05:11:45;15.00;;;10.52;;
8819;SDS011;4446;50.876;4.736;2022-11-15T05:14:12;15.35;;;10.35;;
8819;SDS011;4446;50.876;4.736;2022-11-15T05:16:40;13.45;;;10.40;;
8819;SDS011;4446;50.876;4.736;2022-11-15T05:19:07;17.00;;;10.52;;
8819;SDS011;4446;50.876;4.736;2022-11-15T05:21:34;11.25;;;9.15;;
8819;SDS011;4446;50.876;4.736;2022-11-15T05:24:02;12.45;;;10.18;;
8819;SDS011;4446;50.876;4.736;2022-11-15T05:26:29;17.15;;;10.52;;
8819;SDS011;4446;50.876;4.736;2022-11-15T05:28:58;15.55;;;10.23;;
8819;SDS011;4446;50.876;4.736;2022-11-15T05:31:26;12.90;;;9.57;;
8819;SDS011;4446;50.876;4.736;2022-11-15T05:33:54;14.13;;;9.82;;
8819;SDS011;4446;50.876;4.736;2022-11-15T05:36:24;15.32;;;9.43;;
8819;SDS011;4446;50.876;4.736;2022-11-15T05:38:56;12.60;;;10.23;;
8819;SDS011;4446;50.876;4.736;2022-11-15T05:41:24;11.25;;;10.02;;
8819;SDS011;4446;50.876;4.736;2022-11-15T05:43:55;13.73;;;9.23;;
8819;SDS011;4446;50.876;4.736;2022-11-15T05:46:24;13.40;;;9.55;;
8819;SDS011;4446;50.876;4.736;2022-11-15T05:48:52;13.60;;;10.05;;
8819;SDS011;4446;50.876;4.736;2022-11-15T05:51:20;15.68;;;9.70;;
8819;SDS011;4446;50.876;4.736;2022-11-15T05:53:49;12.68;;;9.15;;
8819;SDS011;4446;50.876;4.736;2022-11-15T05:56:16;15.63;;;10.00;;
8819;SDS011;4446;50.876;4.736;2022-11-15T05:58:43;11.65;;;9.10;;
8819;SDS011;4446;50.876;4.736;2022-11-15T06:01:11;13.65;;;9.02;;
8819;SDS011;4446;50.876;4.736;2022-11-15T06:03:39;12.48;;;8.60;;
8819;SDS011;4446;50.876;4.736;2022-11-15T06:06:06;13.63;;;9.75;;
8819;SDS011;4446;50.876;4.736;2022-11-15T06:08:33;15.32;;;9.80;;
8819;SDS011;4446;50.876;4.736;2022-11-15T06:11:04;16.77;;;10.20;;
8819;SDS011;4446;50.876;4.736;2022-11-15T06:13:32;15.35;;;9.45;;
8819;SDS011;4446;50.876;4.736;2022-11-15T06:15:59;14.23;;;9.20;;
8819;SDS011;4446;50.876;4.736;2022-11-15T06:18:27;13.75;;;9.05;;
8819;SDS011;4446;50.876;4.736;2022-11-15T06:20:59;11.82;;;8.85;;
8819;SDS011;4446;50.876;4.736;2022-11-15T06:23:26;11.98;;;9.00;;
8819;SDS011;4446;50.876;4.736;2022-11-15T06:25:57;13.02;;;8.75;;
8819;SDS011;4446;50.876;4.736;2022-11-15T06:28:24;12.95;;;9.18;;
8819;SDS011;4446;50.876;4.736;2022-11-15T06:30:54;13.57;;;9.05;;
8819;SDS011;4446;50.876;4.736;2022-11-15T06:33:21;11.73;;;9.18;;
8819;SDS011;4446;50.876;4.736;2022-11-15T06:35:49;13.55;;;9.20;;
8819;SDS011;4446;50.876;4.736;2022-11-15T06:38:18;13.43;;;10.23;;
8819;SDS011;4446;50.876;4.736;2022-11-15T06:40:45;12.98;;;8.98;;
8819;SDS011;4446;50.876;4.736;2022-11-15T06:43:12;12.25;;;9.05;;
8819;SDS011;4446;50.876;4.736;2022-11-15T06:45:39;17.38;;;9.93;;
8819;SDS011;4446;50.876;4.736;2022-11-15T06:48:06;16.45;;;10.35;;
8819;SDS011;4446;50.876;4.736;2022-11-15T06:50:33;11.93;;;9.10;;
8819;SDS011;4446;50.876;4.736;2022-11-15T06:53:01;11.80;;;8.48;;
8819;SDS011;4446;50.876;4.736;2022-11-15T06:55:30;11.20;;;8.65;;
8819;SDS011;4446;50.876;4.736;2022-11-15T06:57:57;15.70;;;9.18;;
8819;SDS011;4446;50.876;4.736;2022-11-15T07:00:24;14.88;;;9.30;;
8819;SDS011;4446;50.876;4.736;2022-11-15T07:02:51;11.43;;;9.05;;
8819;SDS011;4446;50.876;4.736;2022-11-15T07:05:18;11.10;;;8.43;;
8819;SDS011;4446;50.876;4.736;2022-11-15T07:07:50;11.88;;;8.70;;
8819;SDS011;4446;50.876;4.736;2022-11-15T07:10:18;13.27;;;8.82;;
8819;SDS011;4446;50.876;4.736;2022-11-15T07:12:47;11.68;;;8.45;;
8819;SDS011;4446;50.876;4.736;2022-11-15T07:15:15;12.68;;;8.85;;
8819;SDS011;4446;50.876;4.736;2022-11-15T07:17:42;12.85;;;9.25;;
8819;SDS011;4446;50.876;4.736;2022-11-15T07:20:09;14.65;;;9.68;;
8819;SDS011;4446;50.876;4.736;2022-11-15T07:22:38;13.13;;;9.38;;
8819;SDS011;4446;50.876;4.736;2022-11-15T07:25:05;11.85;;;8.80;;
8819;SDS011;4446;50.876;4.736;2022-11-15T07:27:33;13.60;;;8.00;;
8819;SDS011;4446;50.876;4.736;2022-11-15T07:30:02;11.63;;;7.97;;
8819;SDS011;4446;50.876;4.736;2022-11-15T07:32:30;10.35;;;7.97;;
8819;SDS011;4446;50.876;4.736;2022-11-15T07:34:57;8.75;;;7.82;;
8819;SDS011;4446;50.876;4.736;2022-11-15T07:37:24;10.30;;;7.15;;
8819;SDS011;4446;50.876;4.736;2022-11-15T07:39:51;13.05;;;7.28;;
8819;SDS011;4446;50.876;4.736;2022-11-15T07:42:18;8.05;;;6.55;;
8819;SDS011;4446;50.876;4.736;2022-11-15T07:45:04;11.88;;;6.82;;
8819;SDS011;4446;50.876;4.736;2022-11-15T07:47:32;11.63;;;7.22;;
8819;SDS011;4446;50.876;4.736;2022-11-15T07:49:59;9.75;;;7.07;;
8819;SDS011;4446;50.876;4.736;2022-11-15T07:52:26;8.52;;;7.00;;
8819;SDS011;4446;50.876;4.736;2022-11-15T07:54:53;9.38;;;6.88;;
8819;SDS011;4446;50.876;4.736;2022-11-15T07:57:20;11.60;;;7.80;;
8819;SDS011;4446;50.876;4.736;2022-11-15T07:59:47;12.18;;;8.18;;
8819;SDS011;4446;50.876;4.736;2022-11-15T08:02:15;11.80;;;8.18;;
8819;SDS011;4446;50.876;4.736;2022-11-15T08:04:42;12.98;;;8.00;;
8819;SDS011;4446;50.876;4.736;2022-11-15T08:07:10;10.65;;;7.68;;
8819;SDS011;4446;50.876;4.736;2022-11-15T08:09:37;12.77;;;7.40;;
8819;SDS011;4446;50.876;4.736;2022-11-15T08:12:06;10.43;;;7.38;;
8819;SDS011;4446;50.876;4.736;2022-11-15T08:14:34;9.73;;;7.57;;
8819;SDS011;4446;50.876;4.736;2022-11-15T08:17:01;11.35;;;6.50;;
8819;SDS011;4446;50.876;4.736;2022-11-15T08:19:29;8.23;;;5.80;;
8819;SDS011;4446;50.876;4.736;2022-11-15T08:21:57;6.85;;;4.93;;
8819;SDS011;4446;50.876;4.736;2022-11-15T08:24:24;6.43;;;4.72;;
8819;SDS011;4446;50.876;4.736;2022-11-15T08:26:52;6.72;;;4.70;;
8819;SDS011;4446;50.876;4.736;2022-11-15T08:29:19;8.30;;;4.43;;
8819;SDS011;4446;50.876;4.736;2022-11-15T08:31:46;9.00;;;3.95;;
8819;SDS011;4446;50.876;4.736;2022-11-15T08:34:13;4.00;;;3.35;;
8819;SDS011;4446;50.876;4.736;2022-11-15T08:36:42;7.22;;;3.88;;
8819;SDS011;4446;50.876;4.736;2022-11-15T08:39:10;5.68;;;3.38;;
8819;SDS011;4446;50.876;4.736;2022-11-15T08:41:37;5.90;;;3.10;;
8819;SDS011;4446;50.876;4.736;2022-11-15T08:44:05;5.70;;;3.17;;
8819;SDS011;4446;50.876;4.736;2022-11-15T08:46:32;6.18;;;3.13;;
8819;SDS011;4446;50.876;4.736;2022-11-15T08:48:59;8.85;;;3.53;;
8819;SDS011;4446;50.876;4.736;2022-11-15T08:51:26;6.60;;;3.10;;
8819;SDS011;4446;50.876;4.736;2022-11-15T08:53:54;5.32;;;2.75;;
8819;SDS011;4446;50.876;4.736;2022-11-15T08:56:21;3.35;;;2.60;;
8819;SDS011;4446;50.876;4.736;2022-11-15T08:58:48;3.70;;;2.58;;
8819;SDS011;4446;50.876;4.736;2022-11-15T09:01:16;6.57;;;2.60;;
8819;SDS011;4446;50.876;4.736;2022-11-15T09:03:44;6.28;;;2.70;;
8819;SDS011;4446;50.876;4.736;2022-11-15T09:06:12;4.50;;;2.42;;
8819;SDS011;4446;50.876;4.736;2022-11-15T09:08:40;6.07;;;2.55;;
8819;SDS011;4446;50.876;4.736;2022-11-15T09:11:09;4.05;;;2.20;;
8819;SDS011;4446;50.876;4.736;2022-11-15T09:13:36;3.38;;;2.20;;
8819;SDS011;4446;50.876;4.736;2022-11-15T09:16:04;5.07;;;2.33;;
8819;SDS011;4446;50.876;4.736;2022-11-15T09:18:31;5.20;;;2.03;;
8819;SDS011;4446;50.876;4.736;2022-11-15T09:20:59;2.28;;;1.90;;
8819;SDS011;4446;50.876;4.736;2022-11-15T09:23:27;2.85;;;2.00;;
8819;SDS011;4446;50.876;4.736;2022-11-15T09:25:58;5.28;;;2.13;;
8819;SDS011;4446;50.876;4.736;2022-11-15T09:28:27;4.07;;;2.00;;
8819;SDS011;4446;50.876;4.736;2022-11-15T09:30:56;2.92;;;1.88;;
8819;SDS011;4446;50.876;4.736;2022-11-15T09:33:25;3.35;;;1.90;;
8819;SDS011;4446;50.876;4.736;2022-11-15T09:35:53;4.03;;;1.83;;
8819;SDS011;4446;50.876;4.736;2022-11-15T09:38:20;6.97;;;1.75;;
8819;SDS011;4446;50.876;4.736;2022-11-15T09:40:48;4.13;;;1.92;;
8819;SDS011;4446;50.876;4.736;2022-11-15T09:43:24;3.85;;;1.80;;
8819;SDS011;4446;50.876;4.736;2022-11-15T09:46:03;3.20;;;1.63;;
8819;SDS011;4446;50.876;4.736;2022-11-15T09:48:47;5.45;;;1.80;;
8819;SDS011;4446;50.876;4.736;2022-11-15T09:51:21;4.65;;;1.90;;
8819;SDS011;4446;50.876;4.736;2022-11-15T09:53:56;5.53;;;1.90;;
8819;SDS011;4446;50.876;4.736;2022-11-15T09:56:29;2.40;;;1.35;;
8819;SDS011;4446;50.876;4.736;2022-11-15T09:59:02;3.17;;;1.80;;
8819;SDS011;4446;50.876;4.736;2022-11-15T10:01:39;3.55;;;1.60;;
8819;SDS011;4446;50.876;4.736;2022-11-15T10:04:14;7.35;;;1.80;;
8819;SDS011;4446;50.876;4.736;2022-11-15T10:06:42;5.25;;;2.28;;
8819;SDS011;4446;50.876;4.736;2022-11-15T10:09:15;4.35;;;1.95;;
8819;SDS011;4446;50.876;4.736;2022-11-15T10:11:46;7.07;;;1.98;;
8819;SDS011;4446;50.876;4.736;2022-11-15T10:14:15;4.10;;;1.58;;
8819;SDS011;4446;50.876;4.736;2022-11-15T10:20:05;2.85;;;1.35;;
8819;SDS011;4446;50.876;4.736;2022-11-15T10:22:38;3.70;;;1.70;;
8819;SDS011;4446;50.876;4.736;2022-11-15T10:27:54;3.03;;;1.75;;
8819;SDS011;4446;50.876;4.736;2022-11-15T10:30:29;5.85;;;1.52;;
8819;SDS011;4446;50.876;4.736;2022-11-15T10:32:58;4.03;;;1.63;;
8819;SDS011;4446;50.876;4.736;2022-11-15T10:35:43;5.05;;;1.50;;
8819;SDS011;4446;50.876;4.736;2022-11-15T10:38:10;5.40;;;2.00;;
8819;SDS011;4446;50.876;4.736;2022-11-15T10:40:38;2.83;;;1.65;;
8819;SDS011;4446;50.876;4.736;2022-11-15T10:43:13;3.78;;;1.50;;
8819;SDS011;4446;50.876;4.736;2022-11-15T10:45:44;3.13;;;1.52;;
8819;SDS011;4446;50.876;4.736;2022-11-15T10:48:22;3.78;;;1.85;;
8819;SDS011;4446;50.876;4.736;2022-11-15T10:50:51;4.80;;;2.03;;
8819;SDS011;4446;50.876;4.736;2022-11-15T10:53:22;3.28;;;1.60;;
8819;SDS011;4446;50.876;4.736;2022-11-15T10:55:56;6.15;;;1.80;;
8819;SDS011;4446;50.876;4.736;2022-11-15T10:58:30;4.72;;;1.50;;
8819;SDS011;4446;50.876;4.736;2022-11-15T11:01:12;3.00;;;1.85;;
8819;SDS011;4446;50.876;4.736;2022-11-15T11:03:44;5.03;;;1.60;;
8819;SDS011;4446;50.876;4.736;2022-11-15T11:06:12;4.20;;;1.50;;
8819;SDS011;4446;50.876;4.736;2022-11-15T11:08:53;4.82;;;1.70;;
8819;SDS011;4446;50.876;4.736;2022-11-15T11:11:22;2.85;;;1.40;;
8819;SDS011;4446;50.876;4.736;2022-11-15T11:13:49;4.72;;;1.40;;
8819;SDS011;4446;50.876;4.736;2022-11-15T11:16:29;4.65;;;1.63;;
8819;SDS011;4446;50.876;4.736;2022-11-15T11:19:10;2.55;;;1.33;;
8819;SDS011;4446;50.876;4.736;2022-11-15T11:22:02;2.63;;;1.60;;
8819;SDS011;4446;50.876;4.736;2022-11-15T11:24:38;3.50;;;1.48;;
8819;SDS011;4446;50.876;4.736;2022-11-15T11:30:09;4.13;;;1.48;;
8819;SDS011;4446;50.876;4.736;2022-11-15T11:32:50;2.88;;;1.38;;
8819;SDS011;4446;50.876;4.736;2022-11-15T11:35:30;3.42;;;1.20;;
8819;SDS011;4446;50.876;4.736;2022-11-15T11:38:08;4.72;;;1.45;;
8819;SDS011;4446;50.876;4.736;2022-11-15T11:41:00;6.35;;;1.38;;
8819;SDS011;4446;50.876;4.736;2022-11-15T11:43:35;3.17;;;1.40;;
8819;SDS011;4446;50.876;4.736;2022-11-15T11:46:11;4.72;;;1.55;;
8819;SDS011;4446;50.876;4.736;2022-11-15T11:48:52;2.72;;;1.70;;
8819;SDS011;4446;50.876;4.736;2022-11-15T11:51:24;2.63;;;1.33;;
8819;SDS011;4446;50.876;4.736;2022-11-15T11:53:56;4.38;;;1.58;;
8819;SDS011;4446;50.876;4.736;2022-11-15T11:56:31;2.90;;;1.40;;
8819;SDS011;4446;50.876;4.736;2022-11-15T11:59:00;3.67;;;1.60;;
8819;SDS011;4446;50.876;4.736;2022-11-15T12:01:34;4.82;;;1.52;;
8819;SDS011;4446;50.876;4.736;2022-11-15T12:04:11;4.20;;;1.70;;
8819;SDS011;4446;50.876;4.736;2022-11-15T12:06:45;2.83;;;1.20;;
8819;SDS011;4446;50.876;4.736;2022-11-15T12:09:16;3.65;;;1.85;;
8819;SDS011;4446;50.876;4.736;2022-11-15T12:11:49;4.20;;;1.50;;
8819;SDS011;4446;50.876;4.736;2022-11-15T12:14:24;2.85;;;1.20;;
8819;SDS011;4446;50.876;4.736;2022-11-15T12:16:56;3.25;;;1.17;;
8819;SDS011;4446;50.876;4.736;2022-11-15T12:19:25;2.35;;;1.20;;
8819;SDS011;4446;50.876;4.736;2022-11-15T12:21:54;2.92;;;1.17;;
8819;SDS011;4446;50.876;4.736;2022-11-15T12:24:27;3.45;;;1.40;;
8819;SDS011;4446;50.876;4.736;2022-11-15T12:27:02;7.25;;;1.73;;
8819;SDS011;4446;50.876;4.736;2022-11-15T12:29:33;2.65;;;1.20;;
8819;SDS011;4446;50.876;4.736;2022-11-15T12:32:05;3.60;;;1.30;;
8819;SDS011;4446;50.876;4.736;2022-11-15T12:34:45;4.60;;;1.40;;
8819;SDS011;4446;50.876;4.736;2022-11-15T12:43:05;2.70;;;1.30;;
8819;SDS011;4446;50.876;4.736;2022-11-15T12:45:52;3.67;;;1.40;;
8819;SDS011;4446;50.876;4.736;2022-11-15T12:51:13;3.05;;;1.50;;
8819;SDS011;4446;50.876;4.736;2022-11-15T12:53:41;2.63;;;1.35;;
8819;SDS011;4446;50.876;4.736;2022-11-15T12:56:09;3.92;;;2.25;;
8819;SDS011;4446;50.876;4.736;2022-11-15T12:58:45;1.63;;;1.20;;
8819;SDS011;4446;50.876;4.736;2022-11-15T13:04:21;2.65;;;1.50;;
8819;SDS011;4446;50.876;4.736;2022-11-15T13:06:53;1.85;;;1.20;;
8819;SDS011;4446;50.876;4.736;2022-11-15T13:15:33;3.20;;;1.17;;
8819;SDS011;4446;50.876;4.736;2022-11-15T13:18:31;2.83;;;1.40;;
8819;SDS011;4446;50.876;4.736;2022-11-15T13:21:01;3.15;;;1.30;;
8819;SDS011;4446;50.876;4.736;2022-11-15T13:23:54;2.10;;;1.20;;
8819;SDS011;4446;50.876;4.736;2022-11-15T13:26:21;1.80;;;1.50;;
8819;SDS011;4446;50.876;4.736;2022-11-15T13:28:50;2.50;;;1.35;;
8819;SDS011;4446;50.876;4.736;2022-11-15T13:31:24;2.22;;;1.33;;
8819;SDS011;4446;50.876;4.736;2022-11-15T13:33:55;4.82;;;4.05;;
8819;SDS011;4446;50.876;4.736;2022-11-15T13:36:25;1.75;;;1.20;;
8819;SDS011;4446;50.876;4.736;2022-11-15T13:38:56;5.75;;;1.77;;
8819;SDS011;4446;50.876;4.736;2022-11-15T13:41:25;2.00;;;1.33;;
8819;SDS011;4446;50.876;4.736;2022-11-15T13:43:54;3.85;;;1.50;;
8819;SDS011;4446;50.876;4.736;2022-11-15T13:46:23;1.95;;;1.33;;
8819;SDS011;4446;50.876;4.736;2022-11-15T13:48:52;1.58;;;1.20;;
8819;SDS011;4446;50.876;4.736;2022-11-15T13:51:22;7.13;;;2.00;;
8819;SDS011;4446;50.876;4.736;2022-11-15T13:53:57;2.10;;;1.23;;
8819;SDS011;4446;50.876;4.736;2022-11-15T13:56:26;3.15;;;1.45;;
8819;SDS011;4446;50.876;4.736;2022-11-15T13:58:55;3.55;;;1.60;;
8819;SDS011;4446;50.876;4.736;2022-11-15T14:01:22;1.80;;;1.48;;
8819;SDS011;4446;50.876;4.736;2022-11-15T14:03:53;2.13;;;1.52;;
8819;SDS011;4446;50.876;4.736;2022-11-15T14:06:23;3.92;;;1.50;;
8819;SDS011;4446;50.876;4.736;2022-11-15T14:09:02;1.92;;;1.30;;
8819;SDS011;4446;50.876;4.736;2022-11-15T14:11:48;1.42;;;1.20;;
8819;SDS011;4446;50.876;4.736;2022-11-15T14:14:16;4.70;;;1.50;;
8819;SDS011;4446;50.876;4.736;2022-11-15T14:16:48;2.00;;;1.17;;
8819;SDS011;4446;50.876;4.736;2022-11-15T14:19:34;2.45;;;1.30;;
8819;SDS011;4446;50.876;4.736;2022-11-15T14:25:14;1.52;;;1.25;;
8819;SDS011;4446;50.876;4.736;2022-11-15T14:27:44;1.33;;;1.23;;
8819;SDS011;4446;50.876;4.736;2022-11-15T14:30:31;1.40;;;1.30;;
8819;SDS011;4446;50.876;4.736;2022-11-15T14:32:58;2.08;;;1.38;;
8819;SDS011;4446;50.876;4.736;2022-11-15T14:35:25;1.77;;;1.40;;
8819;SDS011;4446;50.876;4.736;2022-11-15T14:37:52;2.33;;;1.80;;
8819;SDS011;4446;50.876;4.736;2022-11-15T14:40:21;2.90;;;1.50;;
8819;SDS011;4446;50.876;4.736;2022-11-15T14:42:48;2.65;;;1.40;;
8819;SDS011;4446;50.876;4.736;2022-11-15T14:45:17;2.80;;;1.50;;
8819;SDS011;4446;50.876;4.736;2022-11-15T14:47:45;2.78;;;1.48;;
8819;SDS011;4446;50.876;4.736;2022-11-15T14:50:13;2.85;;;1.73;;
8819;SDS011;4446;50.876;4.736;2022-11-15T14:52:41;4.10;;;1.60;;
8819;SDS011;4446;50.876;4.736;2022-11-15T14:55:11;1.98;;;1.70;;
8819;SDS011;4446;50.876;4.736;2022-11-15T14:57:44;3.47;;;1.98;;
8819;SDS011;4446;50.876;4.736;2022-11-15T15:00:12;3.05;;;2.03;;
8819;SDS011;4446;50.876;4.736;2022-11-15T15:02:40;2.05;;;1.75;;
8819;SDS011;4446;50.876;4.736;2022-11-15T15:05:14;2.28;;;1.55;;
8819;SDS011;4446;50.876;4.736;2022-11-15T15:07:43;2.70;;;1.83;;
8819;SDS011;4446;50.876;4.736;2022-11-15T15:10:11;2.58;;;1.77;;
8819;SDS011;4446;50.876;4.736;2022-11-15T15:12:38;2.17;;;1.60;;
8819;SDS011;4446;50.876;4.736;2022-11-15T15:15:09;2.85;;;1.95;;
8819;SDS011;4446;50.876;4.736;2022-11-15T15:17:40;2.35;;;1.70;;
8819;SDS011;4446;50.876;4.736;2022-11-15T15:20:08;3.00;;;1.83;;
8819;SDS011;4446;50.876;4.736;2022-11-15T15:22:35;2.25;;;1.90;;
8819;SDS011;4446;50.876;4.736;2022-11-15T15:25:09;2.60;;;1.90;;
8819;SDS011;4446;50.876;4.736;2022-11-15T15:27:45;1.67;;;1.58;;
8819;SDS011;4446;50.876;4.736;2022-11-15T15:30:14;2.05;;;1.60;;
8819;SDS011;4446;50.876;4.736;2022-11-15T15:32:41;3.22;;;1.85;;
8819;SDS011;4446;50.876;4.736;2022-11-15T15:35:10;2.45;;;2.08;;
8819;SDS011;4446;50.876;4.736;2022-11-15T15:37:39;2.33;;;1.80;;
8819;SDS011;4446;50.876;4.736;2022-11-15T15:40:10;2.92;;;2.30;;
8819;SDS011;4446;50.876;4.736;2022-11-15T15:42:42;4.43;;;2.17;;
8819;SDS011;4446;50.876;4.736;2022-11-15T15:45:09;3.28;;;2.30;;
8819;SDS011;4446;50.876;4.736;2022-11-15T15:47:38;3.75;;;2.03;;
8819;SDS011;4446;50.876;4.736;2022-11-15T15:50:12;2.38;;;1.90;;
8819;SDS011;4446;50.876;4.736;2022-11-15T15:52:48;2.58;;;2.10;;
8819;SDS011;4446;50.876;4.736;2022-11-15T15:55:15;2.58;;;2.20;;
8819;SDS011;4446;50.876;4.736;2022-11-15T15:57:42;2.15;;;1.95;;